sensor_id;sensor_type;location;lat;lon;timestamp;temperature;humidity
29237;DHT22;16266;50.866;4.398;2022-10-17T00:01:17;16.00;99.90
29237;DHT22;16266;50.866;4.398;2022-10-17T00:03:43;16.00;99.90
29237;DHT22;16266;50.866;4.398;2022-10-17T00:06:09;16.00;99.90
29237;DHT22;16266;50.866;4.398;2022-10-17T00:08:36;15.90;99.90
29237;DHT22;16266;50.866;4.398;2022-10-17T00:11:03;15.90;99.90
29237;DHT22;16266;50.866;4.398;2022-10-17T00:13:30;16.00;99.90
29237;DHT22;16266;50.866;4.398;2022-10-17T00:15:55;16.00;99.90
29237;DHT22;16266;50.866;4.398;2022-10-17T00:18:22;16.00;99.90
29237;DHT22;16266;50.866;4.398;2022-10-17T00:20:48;16.00;99.90
29237;DHT22;16266;50.866;4.398;2022-10-17T00:23:13;16.00;99.90
29237;DHT22;16266;50.866;4.398;2022-10-17T00:25:39;16.10;99.90
29237;DHT22;16266;50.866;4.398;2022-10-17T00:28:05;16.20;99.90
29237;DHT22;16266;50.866;4.398;2022-10-17T00:30:31;16.10;99.90
29237;DHT22;16266;50.866;4.398;2022-10-17T00:32:57;16.10;99.90
29237;DHT22;16266;50.866;4.398;2022-10-17T00:35:22;16.20;99.90
29237;DHT22;16266;50.866;4.398;2022-10-17T00:37:48;16.20;99.90
29237;DHT22;16266;50.866;4.398;2022-10-17T00:40:13;16.20;99.90
29237;DHT22;16266;50.866;4.398;2022-10-17T00:42:39;16.20;99.90
29237;DHT22;16266;50.866;4.398;2022-10-17T00:47:30;16.40;99.90
29237;DHT22;16266;50.866;4.398;2022-10-17T00:49:57;16.40;99.90
29237;DHT22;16266;50.866;4.398;2022-10-17T00:52:23;16.40;99.90
29237;DHT22;16266;50.866;4.398;2022-10-17T00:55:36;16.50;99.90
29237;DHT22;16266;50.866;4.398;2022-10-17T00:57:35;16.50;99.90
29237;DHT22;16266;50.866;4.398;2022-10-17T01:00:01;16.60;99.90
29237;DHT22;16266;50.866;4.398;2022-10-17T01:02:28;16.60;99.90
29237;DHT22;16266;50.866;4.398;2022-10-17T01:04:54;16.60;99.90
29237;DHT22;16266;50.866;4.398;2022-10-17T01:07:20;16.70;99.90
29237;DHT22;16266;50.866;4.398;2022-10-17T01:09:46;16.70;99.90
29237;DHT22;16266;50.866;4.398;2022-10-17T01:12:18;16.70;99.90
29237;DHT22;16266;50.866;4.398;2022-10-17T01:14:57;16.80;99.90
29237;DHT22;16266;50.866;4.398;2022-10-17T01:20:13;16.80;99.90
29237;DHT22;16266;50.866;4.398;2022-10-17T01:32:46;16.90;99.90
29237;DHT22;16266;50.866;4.398;2022-10-17T01:35:27;16.90;99.90
29237;DHT22;16266;50.866;4.398;2022-10-17T01:40:31;16.90;99.90
29237;DHT22;16266;50.866;4.398;2022-10-17T01:43:14;16.90;99.90
29237;DHT22;16266;50.866;4.398;2022-10-17T01:45:46;17.00;99.90
29237;DHT22;16266;50.866;4.398;2022-10-17T01:48:17;17.00;99.90
29237;DHT22;16266;50.866;4.398;2022-10-17T01:50:49;17.00;99.90
29237;DHT22;16266;50.866;4.398;2022-10-17T01:53:27;17.00;99.90
29237;DHT22;16266;50.866;4.398;2022-10-17T01:55:54;17.10;99.90
29237;DHT22;16266;50.866;4.398;2022-10-17T01:58:26;17.00;99.90
29237;DHT22;16266;50.866;4.398;2022-10-17T02:00:51;17.10;99.90
29237;DHT22;16266;50.866;4.398;2022-10-17T02:03:18;17.10;99.90
29237;DHT22;16266;50.866;4.398;2022-10-17T02:05:44;17.10;99.90
29237;DHT22;16266;50.866;4.398;2022-10-17T02:08:10;17.20;99.90
29237;DHT22;16266;50.866;4.398;2022-10-17T02:21:52;17.40;99.90
29237;DHT22;16266;50.866;4.398;2022-10-17T02:24:01;17.40;99.90
29237;DHT22;16266;50.866;4.398;2022-10-17T02:26:31;17.40;99.90
29237;DHT22;16266;50.866;4.398;2022-10-17T02:31:35;17.50;99.90
29237;DHT22;16266;50.866;4.398;2022-10-17T02:34:03;17.50;99.90
29237;DHT22;16266;50.866;4.398;2022-10-17T02:36:35;17.50;99.90
29237;DHT22;16266;50.866;4.398;2022-10-17T02:39:05;17.40;99.90
29237;DHT22;16266;50.866;4.398;2022-10-17T02:41:32;17.50;99.90
29237;DHT22;16266;50.866;4.398;2022-10-17T02:43:58;17.50;99.90
29237;DHT22;16266;50.866;4.398;2022-10-17T02:46:24;17.60;99.90
29237;DHT22;16266;50.866;4.398;2022-10-17T02:48:52;17.60;99.90
29237;DHT22;16266;50.866;4.398;2022-10-17T02:56:22;17.60;99.90
29237;DHT22;16266;50.866;4.398;2022-10-17T02:58:49;17.70;99.90
29237;DHT22;16266;50.866;4.398;2022-10-17T03:01:16;17.70;99.90
29237;DHT22;16266;50.866;4.398;2022-10-17T03:03:42;17.70;99.90
29237;DHT22;16266;50.866;4.398;2022-10-17T03:06:08;17.80;99.90
29237;DHT22;16266;50.866;4.398;2022-10-17T03:08:33;17.80;99.90
29237;DHT22;16266;50.866;4.398;2022-10-17T03:10:59;17.90;99.90
29237;DHT22;16266;50.866;4.398;2022-10-17T03:13:24;17.90;99.90
29237;DHT22;16266;50.866;4.398;2022-10-17T03:15:50;17.90;99.90
29237;DHT22;16266;50.866;4.398;2022-10-17T03:18:15;17.90;99.90
29237;DHT22;16266;50.866;4.398;2022-10-17T03:20:41;17.90;99.90
29237;DHT22;16266;50.866;4.398;2022-10-17T03:23:06;18.00;99.90
29237;DHT22;16266;50.866;4.398;2022-10-17T03:25:32;18.00;99.90
29237;DHT22;16266;50.866;4.398;2022-10-17T03:27:58;18.00;99.90
29237;DHT22;16266;50.866;4.398;2022-10-17T03:30:24;18.00;99.90
29237;DHT22;16266;50.866;4.398;2022-10-17T03:32:50;18.00;99.90
29237;DHT22;16266;50.866;4.398;2022-10-17T03:35:15;18.00;99.90
29237;DHT22;16266;50.866;4.398;2022-10-17T03:37:41;18.00;99.90
29237;DHT22;16266;50.866;4.398;2022-10-17T03:40:06;18.00;99.90
29237;DHT22;16266;50.866;4.398;2022-10-17T03:42:32;18.00;99.90
29237;DHT22;16266;50.866;4.398;2022-10-17T03:44:58;18.00;99.90
29237;DHT22;16266;50.866;4.398;2022-10-17T03:47:23;18.00;99.90
29237;DHT22;16266;50.866;4.398;2022-10-17T03:49:49;18.00;99.90
29237;DHT22;16266;50.866;4.398;2022-10-17T03:52:14;17.90;99.90
29237;DHT22;16266;50.866;4.398;2022-10-17T03:54:40;17.90;99.90
29237;DHT22;16266;50.866;4.398;2022-10-17T03:57:06;17.90;99.90
29237;DHT22;16266;50.866;4.398;2022-10-17T03:59:31;17.90;99.90
29237;DHT22;16266;50.866;4.398;2022-10-17T04:01:57;17.90;99.90
29237;DHT22;16266;50.866;4.398;2022-10-17T04:04:22;17.90;99.90
29237;DHT22;16266;50.866;4.398;2022-10-17T04:06:48;17.90;99.90
29237;DHT22;16266;50.866;4.398;2022-10-17T04:09:13;17.90;99.90
29237;DHT22;16266;50.866;4.398;2022-10-17T04:11:39;17.90;99.90
29237;DHT22;16266;50.866;4.398;2022-10-17T04:14:04;17.90;99.90
29237;DHT22;16266;50.866;4.398;2022-10-17T04:16:30;17.80;99.90
29237;DHT22;16266;50.866;4.398;2022-10-17T04:18:56;17.80;99.90
29237;DHT22;16266;50.866;4.398;2022-10-17T04:21:23;17.80;99.90
29237;DHT22;16266;50.866;4.398;2022-10-17T04:23:52;17.80;99.90
29237;DHT22;16266;50.866;4.398;2022-10-17T04:26:19;17.80;99.90
29237;DHT22;16266;50.866;4.398;2022-10-17T04:28:44;17.80;99.90
29237;DHT22;16266;50.866;4.398;2022-10-17T04:31:11;17.80;99.90
29237;DHT22;16266;50.866;4.398;2022-10-17T04:33:36;17.80;99.90
29237;DHT22;16266;50.866;4.398;2022-10-17T04:36:06;17.70;99.90
29237;DHT22;16266;50.866;4.398;2022-10-17T04:38:31;17.70;99.90
29237;DHT22;16266;50.866;4.398;2022-10-17T04:40:58;17.70;99.90
29237;DHT22;16266;50.866;4.398;2022-10-17T04:43:27;17.70;99.90
29237;DHT22;16266;50.866;4.398;2022-10-17T04:45:53;17.70;99.90
29237;DHT22;16266;50.866;4.398;2022-10-17T04:48:18;17.70;99.90
29237;DHT22;16266;50.866;4.398;2022-10-17T04:50:57;17.60;99.90
29237;DHT22;16266;50.866;4.398;2022-10-17T04:53:23;17.60;99.90
29237;DHT22;16266;50.866;4.398;2022-10-17T04:55:49;17.50;99.90
29237;DHT22;16266;50.866;4.398;2022-10-17T04:58:14;17.50;99.90
29237;DHT22;16266;50.866;4.398;2022-10-17T05:00:41;17.50;99.90
29237;DHT22;16266;50.866;4.398;2022-10-17T05:03:07;17.60;99.90
29237;DHT22;16266;50.866;4.398;2022-10-17T05:05:33;17.70;99.90
29237;DHT22;16266;50.866;4.398;2022-10-17T05:08:01;17.60;99.90
29237;DHT22;16266;50.866;4.398;2022-10-17T05:10:27;17.60;99.90
29237;DHT22;16266;50.866;4.398;2022-10-17T05:12:53;17.60;99.90
29237;DHT22;16266;50.866;4.398;2022-10-17T05:15:19;17.60;99.90
29237;DHT22;16266;50.866;4.398;2022-10-17T05:17:44;17.60;99.90
29237;DHT22;16266;50.866;4.398;2022-10-17T05:20:10;17.60;99.90
29237;DHT22;16266;50.866;4.398;2022-10-17T05:22:36;17.70;99.90
29237;DHT22;16266;50.866;4.398;2022-10-17T05:25:01;17.80;99.90
29237;DHT22;16266;50.866;4.398;2022-10-17T05:27:27;17.80;99.90
29237;DHT22;16266;50.866;4.398;2022-10-17T05:29:52;17.80;99.90
29237;DHT22;16266;50.866;4.398;2022-10-17T05:32:18;17.90;99.90
29237;DHT22;16266;50.866;4.398;2022-10-17T05:34:43;17.90;99.90
29237;DHT22;16266;50.866;4.398;2022-10-17T05:37:10;17.90;99.90
29237;DHT22;16266;50.866;4.398;2022-10-17T05:39:35;18.00;99.90
29237;DHT22;16266;50.866;4.398;2022-10-17T05:42:01;18.00;99.90
29237;DHT22;16266;50.866;4.398;2022-10-17T05:44:27;17.90;99.90
29237;DHT22;16266;50.866;4.398;2022-10-17T05:46:52;18.00;99.90
29237;DHT22;16266;50.866;4.398;2022-10-17T05:49:18;18.00;99.90
29237;DHT22;16266;50.866;4.398;2022-10-17T05:51:43;18.10;99.90
29237;DHT22;16266;50.866;4.398;2022-10-17T05:54:09;18.10;99.90
29237;DHT22;16266;50.866;4.398;2022-10-17T05:56:34;18.10;99.90
29237;DHT22;16266;50.866;4.398;2022-10-17T05:59:01;18.10;99.90
29237;DHT22;16266;50.866;4.398;2022-10-17T06:01:27;18.10;99.90
29237;DHT22;16266;50.866;4.398;2022-10-17T06:03:52;18.10;99.90
29237;DHT22;16266;50.866;4.398;2022-10-17T06:06:18;18.20;99.90
29237;DHT22;16266;50.866;4.398;2022-10-17T06:08:43;18.10;99.90
29237;DHT22;16266;50.866;4.398;2022-10-17T06:11:09;18.10;99.90
29237;DHT22;16266;50.866;4.398;2022-10-17T06:13:35;18.00;99.90
29237;DHT22;16266;50.866;4.398;2022-10-17T06:16:01;18.00;99.90
29237;DHT22;16266;50.866;4.398;2022-10-17T06:18:27;18.00;99.90
29237;DHT22;16266;50.866;4.398;2022-10-17T06:20:52;18.00;99.90
29237;DHT22;16266;50.866;4.398;2022-10-17T06:23:18;18.00;99.90
29237;DHT22;16266;50.866;4.398;2022-10-17T06:25:43;18.00;99.90
29237;DHT22;16266;50.866;4.398;2022-10-17T06:28:09;18.00;99.90
29237;DHT22;16266;50.866;4.398;2022-10-17T06:30:39;18.00;99.90
29237;DHT22;16266;50.866;4.398;2022-10-17T06:33:05;18.00;99.90
29237;DHT22;16266;50.866;4.398;2022-10-17T06:35:30;18.00;99.90
29237;DHT22;16266;50.866;4.398;2022-10-17T06:37:56;17.90;99.90
29237;DHT22;16266;50.866;4.398;2022-10-17T06:40:21;18.00;99.90
29237;DHT22;16266;50.866;4.398;2022-10-17T06:42:47;18.10;99.90
29237;DHT22;16266;50.866;4.398;2022-10-17T06:45:12;18.10;99.90
29237;DHT22;16266;50.866;4.398;2022-10-17T06:47:38;18.20;99.90
29237;DHT22;16266;50.866;4.398;2022-10-17T06:50:04;18.20;99.90
29237;DHT22;16266;50.866;4.398;2022-10-17T06:52:29;18.30;99.90
29237;DHT22;16266;50.866;4.398;2022-10-17T06:54:55;18.30;99.90
29237;DHT22;16266;50.866;4.398;2022-10-17T06:57:20;18.30;99.90
29237;DHT22;16266;50.866;4.398;2022-10-17T06:59:46;18.30;99.90
29237;DHT22;16266;50.866;4.398;2022-10-17T07:02:11;18.40;99.90
29237;DHT22;16266;50.866;4.398;2022-10-17T07:04:37;18.50;99.90
29237;DHT22;16266;50.866;4.398;2022-10-17T07:07:03;18.50;99.90
29237;DHT22;16266;50.866;4.398;2022-10-17T07:09:29;18.40;99.90
29237;DHT22;16266;50.866;4.398;2022-10-17T07:11:54;18.50;99.90
29237;DHT22;16266;50.866;4.398;2022-10-17T07:14:20;18.60;99.90
29237;DHT22;16266;50.866;4.398;2022-10-17T07:16:46;18.50;99.90
29237;DHT22;16266;50.866;4.398;2022-10-17T07:19:11;18.40;99.90
29237;DHT22;16266;50.866;4.398;2022-10-17T07:21:37;18.40;99.90
29237;DHT22;16266;50.866;4.398;2022-10-17T07:24:02;18.50;99.90
29237;DHT22;16266;50.866;4.398;2022-10-17T07:26:29;18.50;99.90
29237;DHT22;16266;50.866;4.398;2022-10-17T07:28:54;18.40;99.90
29237;DHT22;16266;50.866;4.398;2022-10-17T07:31:21;18.30;99.90
29237;DHT22;16266;50.866;4.398;2022-10-17T07:33:47;18.10;99.90
29237;DHT22;16266;50.866;4.398;2022-10-17T07:36:13;18.00;99.90
29237;DHT22;16266;50.866;4.398;2022-10-17T07:38:39;17.90;99.90
29237;DHT22;16266;50.866;4.398;2022-10-17T07:41:06;17.90;99.90
29237;DHT22;16266;50.866;4.398;2022-10-17T07:43:32;17.90;99.90
29237;DHT22;16266;50.866;4.398;2022-10-17T07:45:59;17.80;99.90
29237;DHT22;16266;50.866;4.398;2022-10-17T07:48:24;17.80;99.90
29237;DHT22;16266;50.866;4.398;2022-10-17T07:50:50;17.80;99.90
29237;DHT22;16266;50.866;4.398;2022-10-17T07:53:16;17.70;99.90
29237;DHT22;16266;50.866;4.398;2022-10-17T07:55:43;17.70;99.90
29237;DHT22;16266;50.866;4.398;2022-10-17T07:58:11;17.70;99.90
29237;DHT22;16266;50.866;4.398;2022-10-17T08:00:46;17.70;99.90
29237;DHT22;16266;50.866;4.398;2022-10-17T08:03:13;17.80;99.90
29237;DHT22;16266;50.866;4.398;2022-10-17T08:05:39;17.80;99.90
29237;DHT22;16266;50.866;4.398;2022-10-17T08:08:04;17.80;99.90
29237;DHT22;16266;50.866;4.398;2022-10-17T08:10:30;17.80;99.90
29237;DHT22;16266;50.866;4.398;2022-10-17T08:12:55;17.90;99.90
29237;DHT22;16266;50.866;4.398;2022-10-17T08:15:22;17.90;99.90
29237;DHT22;16266;50.866;4.398;2022-10-17T08:17:47;17.80;99.90
29237;DHT22;16266;50.866;4.398;2022-10-17T08:20:13;17.80;99.90
29237;DHT22;16266;50.866;4.398;2022-10-17T08:22:39;17.80;99.90
29237;DHT22;16266;50.866;4.398;2022-10-17T08:25:05;17.80;99.90
29237;DHT22;16266;50.866;4.398;2022-10-17T08:27:31;17.80;99.90
29237;DHT22;16266;50.866;4.398;2022-10-17T08:29:58;17.80;99.90
29237;DHT22;16266;50.866;4.398;2022-10-17T08:32:24;17.80;99.90
29237;DHT22;16266;50.866;4.398;2022-10-17T08:34:51;17.80;99.90
29237;DHT22;16266;50.866;4.398;2022-10-17T08:37:16;17.80;99.90
29237;DHT22;16266;50.866;4.398;2022-10-17T08:39:42;18.10;99.90
29237;DHT22;16266;50.866;4.398;2022-10-17T08:47:15;18.70;99.90
29237;DHT22;16266;50.866;4.398;2022-10-17T08:49:56;18.70;99.90
29237;DHT22;16266;50.866;4.398;2022-10-17T08:54:48;18.70;99.90
29237;DHT22;16266;50.866;4.398;2022-10-17T08:57:15;18.60;99.90
29237;DHT22;16266;50.866;4.398;2022-10-17T08:59:41;18.50;99.90
29237;DHT22;16266;50.866;4.398;2022-10-17T09:02:31;18.30;99.90
29237;DHT22;16266;50.866;4.398;2022-10-17T09:05:00;18.30;99.90
29237;DHT22;16266;50.866;4.398;2022-10-17T09:12:40;18.40;99.90
29237;DHT22;16266;50.866;4.398;2022-10-17T09:17:57;18.50;99.90
29237;DHT22;16266;50.866;4.398;2022-10-17T09:20:31;18.50;99.90
29237;DHT22;16266;50.866;4.398;2022-10-17T09:23:02;18.50;99.90
29237;DHT22;16266;50.866;4.398;2022-10-17T09:25:31;18.50;99.90
29237;DHT22;16266;50.866;4.398;2022-10-17T09:28:20;18.40;99.90
29237;DHT22;16266;50.866;4.398;2022-10-17T09:30:48;18.30;99.90
29237;DHT22;16266;50.866;4.398;2022-10-17T09:33:17;18.20;99.90
29237;DHT22;16266;50.866;4.398;2022-10-17T09:35:43;18.20;99.90
29237;DHT22;16266;50.866;4.398;2022-10-17T09:38:12;18.20;99.90
29237;DHT22;16266;50.866;4.398;2022-10-17T09:40:39;18.20;99.90
29237;DHT22;16266;50.866;4.398;2022-10-17T09:43:05;18.20;99.90
29237;DHT22;16266;50.866;4.398;2022-10-17T09:45:31;18.30;99.90
29237;DHT22;16266;50.866;4.398;2022-10-17T09:48:07;18.40;99.90
29237;DHT22;16266;50.866;4.398;2022-10-17T09:50:35;18.50;99.90
29237;DHT22;16266;50.866;4.398;2022-10-17T09:53:14;18.50;99.90
29237;DHT22;16266;50.866;4.398;2022-10-17T09:55:44;18.60;99.90
29237;DHT22;16266;50.866;4.398;2022-10-17T09:58:12;18.50;99.90
29237;DHT22;16266;50.866;4.398;2022-10-17T10:00:42;18.50;99.90
29237;DHT22;16266;50.866;4.398;2022-10-17T10:03:23;18.50;99.90
29237;DHT22;16266;50.866;4.398;2022-10-17T10:08:34;18.40;99.90
29237;DHT22;16266;50.866;4.398;2022-10-17T10:11:00;18.40;99.90
29237;DHT22;16266;50.866;4.398;2022-10-17T10:13:29;18.50;99.90
29237;DHT22;16266;50.866;4.398;2022-10-17T10:16:12;18.50;99.90
29237;DHT22;16266;50.866;4.398;2022-10-17T10:18:38;18.60;99.90
29237;DHT22;16266;50.866;4.398;2022-10-17T10:21:05;18.60;99.90
29237;DHT22;16266;50.866;4.398;2022-10-17T10:23:31;18.60;99.90
29237;DHT22;16266;50.866;4.398;2022-10-17T10:25:57;18.50;99.90
29237;DHT22;16266;50.866;4.398;2022-10-17T10:28:25;18.50;99.90
29237;DHT22;16266;50.866;4.398;2022-10-17T10:30:51;18.60;99.90
29237;DHT22;16266;50.866;4.398;2022-10-17T10:33:19;18.70;99.90
29237;DHT22;16266;50.866;4.398;2022-10-17T10:35:50;18.80;99.90
29237;DHT22;16266;50.866;4.398;2022-10-17T10:38:19;18.90;99.90
29237;DHT22;16266;50.866;4.398;2022-10-17T10:40:55;19.00;99.90
29237;DHT22;16266;50.866;4.398;2022-10-17T10:43:30;19.00;99.90
29237;DHT22;16266;50.866;4.398;2022-10-17T10:45:57;19.10;99.90
29237;DHT22;16266;50.866;4.398;2022-10-17T10:48:24;19.10;99.90
29237;DHT22;16266;50.866;4.398;2022-10-17T10:50:56;19.20;99.90
29237;DHT22;16266;50.866;4.398;2022-10-17T10:53:35;19.30;99.90
29237;DHT22;16266;50.866;4.398;2022-10-17T10:56:13;19.30;99.90
29237;DHT22;16266;50.866;4.398;2022-10-17T10:58:52;19.20;99.90
29237;DHT22;16266;50.866;4.398;2022-10-17T11:01:21;19.40;99.90
29237;DHT22;16266;50.866;4.398;2022-10-17T11:06:25;19.50;99.90
29237;DHT22;16266;50.866;4.398;2022-10-17T11:09:04;19.50;99.90
29237;DHT22;16266;50.866;4.398;2022-10-17T11:11:34;19.50;99.90
29237;DHT22;16266;50.866;4.398;2022-10-17T11:14:12;19.40;99.90
29237;DHT22;16266;50.866;4.398;2022-10-17T11:16:41;19.30;99.90
29237;DHT22;16266;50.866;4.398;2022-10-17T11:19:14;19.40;99.90
29237;DHT22;16266;50.866;4.398;2022-10-17T11:21:48;19.40;99.90
29237;DHT22;16266;50.866;4.398;2022-10-17T11:25:03;19.40;99.90
29237;DHT22;16266;50.866;4.398;2022-10-17T11:27:06;19.40;99.90
29237;DHT22;16266;50.866;4.398;2022-10-17T11:29:37;19.40;99.90
29237;DHT22;16266;50.866;4.398;2022-10-17T11:34:44;19.40;99.90
29237;DHT22;16266;50.866;4.398;2022-10-17T11:37:14;19.30;99.90
29237;DHT22;16266;50.866;4.398;2022-10-17T11:39:47;19.30;99.90
29237;DHT22;16266;50.866;4.398;2022-10-17T11:42:16;19.20;99.90
29237;DHT22;16266;50.866;4.398;2022-10-17T11:44:43;19.10;99.90
29237;DHT22;16266;50.866;4.398;2022-10-17T11:49:57;19.00;99.90
29237;DHT22;16266;50.866;4.398;2022-10-17T11:52:27;19.10;99.90
29237;DHT22;16266;50.866;4.398;2022-10-17T11:54:55;19.10;99.90
29237;DHT22;16266;50.866;4.398;2022-10-17T12:05:26;19.30;99.90
29237;DHT22;16266;50.866;4.398;2022-10-17T12:08:10;19.10;99.90
29237;DHT22;16266;50.866;4.398;2022-10-17T12:10:50;19.00;99.90
29237;DHT22;16266;50.866;4.398;2022-10-17T12:14:00;19.00;99.90
29237;DHT22;16266;50.866;4.398;2022-10-17T12:18:41;19.30;99.90
29237;DHT22;16266;50.866;4.398;2022-10-17T12:21:06;19.40;99.90
29237;DHT22;16266;50.866;4.398;2022-10-17T12:23:32;19.40;99.90
29237;DHT22;16266;50.866;4.398;2022-10-17T12:26:01;19.40;99.90
29237;DHT22;16266;50.866;4.398;2022-10-17T12:28:30;19.60;99.90
29237;DHT22;16266;50.866;4.398;2022-10-17T12:31:08;19.50;99.90
29237;DHT22;16266;50.866;4.398;2022-10-17T12:38:46;19.30;99.90
29237;DHT22;16266;50.866;4.398;2022-10-17T12:41:12;19.20;99.90
29237;DHT22;16266;50.866;4.398;2022-10-17T12:43:50;19.10;99.90
29237;DHT22;16266;50.866;4.398;2022-10-17T12:49:02;19.10;99.90
29237;DHT22;16266;50.866;4.398;2022-10-17T12:51:28;19.10;99.90
29237;DHT22;16266;50.866;4.398;2022-10-17T12:53:58;19.10;99.90
29237;DHT22;16266;50.866;4.398;2022-10-17T12:56:33;19.10;99.90
29237;DHT22;16266;50.866;4.398;2022-10-17T12:59:00;19.00;99.90
29237;DHT22;16266;50.866;4.398;2022-10-17T13:01:32;19.00;99.90
29237;DHT22;16266;50.866;4.398;2022-10-17T13:04:00;19.10;99.90
29237;DHT22;16266;50.866;4.398;2022-10-17T13:06:30;19.20;99.90
29237;DHT22;16266;50.866;4.398;2022-10-17T13:09:31;19.40;99.90
29237;DHT22;16266;50.866;4.398;2022-10-17T13:11:48;19.50;99.90
29237;DHT22;16266;50.866;4.398;2022-10-17T13:14:15;19.70;99.90
29237;DHT22;16266;50.866;4.398;2022-10-17T13:16:51;19.50;99.90
29237;DHT22;16266;50.866;4.398;2022-10-17T13:19:18;19.60;99.90
29237;DHT22;16266;50.866;4.398;2022-10-17T13:21:54;19.60;99.90
29237;DHT22;16266;50.866;4.398;2022-10-17T13:24:22;19.80;99.90
29237;DHT22;16266;50.866;4.398;2022-10-17T13:26:52;19.90;99.90
29237;DHT22;16266;50.866;4.398;2022-10-17T13:29:18;19.90;99.90
29237;DHT22;16266;50.866;4.398;2022-10-17T13:31:50;19.90;99.90
29237;DHT22;16266;50.866;4.398;2022-10-17T13:34:17;19.90;99.90
29237;DHT22;16266;50.866;4.398;2022-10-17T13:36:43;20.00;99.90
29237;DHT22;16266;50.866;4.398;2022-10-17T13:39:12;20.10;99.90
29237;DHT22;16266;50.866;4.398;2022-10-17T13:41:38;20.10;99.90
29237;DHT22;16266;50.866;4.398;2022-10-17T13:44:26;20.10;99.90
29237;DHT22;16266;50.866;4.398;2022-10-17T13:46:50;20.10;99.90
29237;DHT22;16266;50.866;4.398;2022-10-17T13:51:49;20.20;99.90
29237;DHT22;16266;50.866;4.398;2022-10-17T13:54:32;20.10;99.90
29237;DHT22;16266;50.866;4.398;2022-10-17T13:56:58;20.10;99.90
29237;DHT22;16266;50.866;4.398;2022-10-17T13:59:24;20.00;99.90
29237;DHT22;16266;50.866;4.398;2022-10-17T14:01:52;20.10;99.90
29237;DHT22;16266;50.866;4.398;2022-10-17T14:04:19;20.10;99.90
29237;DHT22;16266;50.866;4.398;2022-10-17T14:06:45;20.00;99.90
29237;DHT22;16266;50.866;4.398;2022-10-17T14:09:20;20.00;99.90
29237;DHT22;16266;50.866;4.398;2022-10-17T14:17:02;19.80;99.90
29237;DHT22;16266;50.866;4.398;2022-10-17T14:19:29;19.80;99.90
29237;DHT22;16266;50.866;4.398;2022-10-17T14:24:38;20.00;99.90
29237;DHT22;16266;50.866;4.398;2022-10-17T14:27:23;20.00;99.90
29237;DHT22;16266;50.866;4.398;2022-10-17T14:29:50;20.20;99.90
29237;DHT22;16266;50.866;4.398;2022-10-17T14:32:15;20.30;99.90
29237;DHT22;16266;50.866;4.398;2022-10-17T14:34:42;20.20;99.90
29237;DHT22;16266;50.866;4.398;2022-10-17T14:37:09;20.40;99.90
29237;DHT22;16266;50.866;4.398;2022-10-17T14:39:35;20.40;99.90
29237;DHT22;16266;50.866;4.398;2022-10-17T14:42:00;20.40;99.90
29237;DHT22;16266;50.866;4.398;2022-10-17T14:44:28;20.30;99.90
29237;DHT22;16266;50.866;4.398;2022-10-17T14:46:55;20.40;99.90
29237;DHT22;16266;50.866;4.398;2022-10-17T14:54:47;20.50;99.90
29237;DHT22;16266;50.866;4.398;2022-10-17T14:57:17;20.40;99.90
29237;DHT22;16266;50.866;4.398;2022-10-17T14:59:43;20.40;99.90
29237;DHT22;16266;50.866;4.398;2022-10-17T15:02:09;20.30;99.90
29237;DHT22;16266;50.866;4.398;2022-10-17T15:04:35;20.30;99.90
29237;DHT22;16266;50.866;4.398;2022-10-17T15:07:01;20.10;99.90
29237;DHT22;16266;50.866;4.398;2022-10-17T15:09:26;20.00;99.90
29237;DHT22;16266;50.866;4.398;2022-10-17T15:12:02;19.90;99.90
29237;DHT22;16266;50.866;4.398;2022-10-17T15:14:28;20.00;99.90
29237;DHT22;16266;50.866;4.398;2022-10-17T15:16:54;20.00;99.90
29237;DHT22;16266;50.866;4.398;2022-10-17T15:19:19;20.00;99.90
29237;DHT22;16266;50.866;4.398;2022-10-17T15:21:45;20.00;99.90
29237;DHT22;16266;50.866;4.398;2022-10-17T15:24:10;20.10;99.90
29237;DHT22;16266;50.866;4.398;2022-10-17T15:26:36;20.00;99.90
29237;DHT22;16266;50.866;4.398;2022-10-17T15:29:01;19.90;99.90
29237;DHT22;16266;50.866;4.398;2022-10-17T15:31:28;19.80;99.90
29237;DHT22;16266;50.866;4.398;2022-10-17T15:33:54;19.60;99.90
29237;DHT22;16266;50.866;4.398;2022-10-17T15:36:24;19.60;99.90
29237;DHT22;16266;50.866;4.398;2022-10-17T15:38:50;19.60;99.90
29237;DHT22;16266;50.866;4.398;2022-10-17T15:41:17;19.70;99.90
29237;DHT22;16266;50.866;4.398;2022-10-17T15:43:43;19.60;99.90
29237;DHT22;16266;50.866;4.398;2022-10-17T15:46:10;19.70;99.90
29237;DHT22;16266;50.866;4.398;2022-10-17T15:48:37;19.60;99.90
29237;DHT22;16266;50.866;4.398;2022-10-17T15:51:03;19.60;99.90
29237;DHT22;16266;50.866;4.398;2022-10-17T15:53:28;19.50;99.90
29237;DHT22;16266;50.866;4.398;2022-10-17T15:55:54;19.60;99.90
29237;DHT22;16266;50.866;4.398;2022-10-17T15:58:19;19.40;99.90
29237;DHT22;16266;50.866;4.398;2022-10-17T16:00:45;19.40;99.90
29237;DHT22;16266;50.866;4.398;2022-10-17T16:03:10;19.30;99.90
29237;DHT22;16266;50.866;4.398;2022-10-17T16:05:36;19.20;99.90
29237;DHT22;16266;50.866;4.398;2022-10-17T16:08:01;19.20;99.90
29237;DHT22;16266;50.866;4.398;2022-10-17T16:10:27;19.20;99.90
29237;DHT22;16266;50.866;4.398;2022-10-17T16:12:53;19.10;99.90
29237;DHT22;16266;50.866;4.398;2022-10-17T16:15:20;19.00;99.90
29237;DHT22;16266;50.866;4.398;2022-10-17T16:17:52;18.90;99.90
29237;DHT22;16266;50.866;4.398;2022-10-17T16:20:19;18.90;99.90
29237;DHT22;16266;50.866;4.398;2022-10-17T16:22:45;18.80;99.90
29237;DHT22;16266;50.866;4.398;2022-10-17T16:25:18;18.90;99.90
29237;DHT22;16266;50.866;4.398;2022-10-17T16:27:45;18.90;99.90
29237;DHT22;16266;50.866;4.398;2022-10-17T16:30:11;18.90;99.90
29237;DHT22;16266;50.866;4.398;2022-10-17T16:32:37;18.90;99.90
29237;DHT22;16266;50.866;4.398;2022-10-17T16:35:03;18.90;99.90
29237;DHT22;16266;50.866;4.398;2022-10-17T16:37:29;18.90;99.90
29237;DHT22;16266;50.866;4.398;2022-10-17T16:39:55;18.90;99.90
29237;DHT22;16266;50.866;4.398;2022-10-17T16:42:20;18.80;99.90
29237;DHT22;16266;50.866;4.398;2022-10-17T16:44:46;18.80;99.90
29237;DHT22;16266;50.866;4.398;2022-10-17T16:47:12;18.70;99.90
29237;DHT22;16266;50.866;4.398;2022-10-17T16:49:37;18.70;99.90
29237;DHT22;16266;50.866;4.398;2022-10-17T16:52:03;18.60;99.90
29237;DHT22;16266;50.866;4.398;2022-10-17T16:54:30;18.70;99.90
29237;DHT22;16266;50.866;4.398;2022-10-17T16:57:03;18.60;99.90
29237;DHT22;16266;50.866;4.398;2022-10-17T17:02:00;18.50;99.90
29237;DHT22;16266;50.866;4.398;2022-10-17T17:04:26;18.40;99.90
29237;DHT22;16266;50.866;4.398;2022-10-17T17:06:51;18.40;99.90
29237;DHT22;16266;50.866;4.398;2022-10-17T17:09:17;18.30;99.90
29237;DHT22;16266;50.866;4.398;2022-10-17T17:11:43;18.20;99.90
29237;DHT22;16266;50.866;4.398;2022-10-17T17:14:09;18.30;99.90